Flight Track Log - Related Links

Times and Time Zones

All times are in EDT time to prevent confusion due to time zone crossing. See the AMX3 flight status page for this flight to view local times or setup timezone preferences in your user account.

Time Position Orientation Groundspeed Altitude Reporting Facility
EDT Latitude Longitude Course Direction KTS MPH feet Rate Location/Type
Mon 01:00:15 AM 25.0336 -95.8850 29° Northeast 511 588 32,900  Level Houston Center
Mon 01:01:15 AM 25.1583 -95.8075 29° Northeast 513 590 32,900 50 Level Houston Center
Mon 01:02:16 AM 25.2892 -95.7242 30° Northeast 518 596 33,000 50 Climbing Houston Center
Mon 01:03:16 AM 25.4089 -95.6519 29° Northeast 517 595 33,000 -50 Level Houston Center
Mon 01:04:16 AM 25.5331 -95.5767 29° Northeast 513 590 32,900 -50 Descending Houston Center
Mon 01:05:16 AM 25.6714 -95.4742 34° Northeast 529 609 32,900 50 Level Houston Center
Mon 01:06:17 AM 25.7675 -95.3661 45° Northeast 533 613 33,000 50 Climbing Houston Center
Mon 01:07:17 AM 25.8728 -95.2311 49° Northeast 534 615 33,000  Level Houston Center
Mon 01:08:17 AM 25.9703 -95.1044 49° Northeast 537 618 33,000  Level Houston Center
Mon 01:09:17 AM 26.0567 -94.9919 49° Northeast 534 615 33,000  Level Houston Center
Mon 01:10:17 AM 26.1503 -94.8689 50° Northeast 530 610 33,000 -50 Level Houston Center
Mon 01:11:18 AM 26.2442 -94.7461 50° Northeast 528 608 32,900  Descending Houston Center
Mon 01:12:18 AM 26.3619 -94.6061 47° Northeast 537 618 33,000 50 Climbing Houston Center
Mon 01:13:18 AM 26.4475 -94.4958 49° Northeast 534 615 33,000  Level Houston Center
Mon 01:14:18 AM 26.5447 -94.3669 50° Northeast 540 621 33,000  Level Houston Center
Mon 01:15:19 AM 26.6428 -94.2406 49° Northeast 539 620 33,000  Level Houston Center
Mon 01:16:19 AM 26.7403 -94.1133 49° Northeast 540 621 33,000  Level Houston Center
Mon 01:17:19 AM 26.8383 -93.9872 49° Northeast 540 621 33,000  Level Houston Center
Mon 01:18:19 AM 26.9344 -93.8597 50° Northeast 536 617 33,000  Level Houston Center
Mon 01:19:19 AM 27.0286 -93.7353 50° Northeast 528 608 33,000  Level Houston Center
Mon 01:20:19 AM 27.1225 -93.6111 50° Northeast 524 603 33,000  Level Houston Center
Mon 01:21:20 AM 27.2164 -93.4864 50° Northeast 524 603 33,000  Level Houston Center
Mon 01:22:20 AM 27.3106 -93.3611 50° Northeast 524 603 33,000  Level Houston Center
Mon 01:23:20 AM 27.4239 -93.2108 50° Northeast 526 605 33,000  Level Houston Center
Mon 01:24:20 AM 27.5119 -93.0928 50° Northeast 529 609 33,000  Level Houston Center
Mon 01:25:20 AM 27.6067 -92.9650 50° Northeast 530 610 33,000  Level Houston Center
Mon 01:26:21 AM 27.7028 -92.8369 50° Northeast 533 613 33,000 -50 Level Houston Center
Mon 01:27:21 AM 27.7986 -92.7069 50° Northeast 537 618 32,900  Descending Houston Center
Mon 01:28:21 AM 27.8961 -92.5767 50° Northeast 541 623 33,000 50 Climbing Houston Center
Mon 01:29:21 AM 27.9908 -92.4475 50° Northeast 539 620 33,000  Level Houston Center
Mon 01:30:21 AM 28.0844 -92.3189 50° Northeast 534 615 33,000  Level Houston Center
Mon 01:31:21 AM 28.1800 -92.1881 50° Northeast 538 619 33,000  Level Houston Center
Mon 01:32:22 AM 28.2736 -92.0594 50° Northeast 533 613 33,000  Level Houston Center
Mon 01:33:22 AM 28.3667 -91.9306 51° Northeast 530 610 33,000  Level Houston Center
Mon 01:34:22 AM 28.4603 -91.8014 50° Northeast 531 611 33,000  Level Houston Center
Mon 01:35:22 AM 28.5625 -91.6600 51° Northeast 527 606 33,000  Level Houston Center
Mon 01:36:22 AM 28.6561 -91.5297 51° Northeast 531 611 33,000 -50 Level Houston Center
Mon 01:37:22 AM 28.7478 -91.4006 51° Northeast 526 605 32,900  Descending Houston Center
Mon 01:38:23 AM 28.8408 -91.2703 51° Northeast 524 603 33,000  Climbing Houston Center
Mon 01:39:23 AM 28.9322 -91.1450 50° Northeast 521 600 32,900 -50 Descending Houston Center
Mon 01:40:23 AM 29.0239 -91.0172 51° Northeast 522 601 32,900 50 Level Houston Center
Mon 01:41:23 AM 29.1150 -90.8903 51° Northeast 520 598 33,000 50 Climbing Houston Center
Mon 01:42:23 AM 29.2069 -90.7625 50° Northeast 519 597 33,000  Level Houston Center
Mon 01:43:24 AM 29.2978 -90.6322 51° Northeast 522 601 33,000  Level Houston Center
Mon 01:44:24 AM 29.3886 -90.5011 51° Northeast 526 605 33,000  Level Houston Center
Mon 01:45:24 AM 29.4814 -90.3697 51° Northeast 530 610 33,000  Level Houston Center
Mon 01:46:24 AM 29.5722 -90.2358 52° Northeast 532 612 33,000  Level Houston Center
Mon 01:47:24 AM 29.6669 -90.1019 51° Northeast 539 620 33,000  Level Houston Center
Mon 01:48:24 AM 29.7592 -89.9664 52° Northeast 540 621 33,000  Level Houston Center
Mon 01:49:25 AM 29.8528 -89.8297 52° Northeast 545 627 33,000  Level Houston Center
Mon 01:50:25 AM 29.9461 -89.6928 52° Northeast 547 629 33,000  Level Houston Center
Mon 01:51:25 AM 30.0400 -89.5550 52° Northeast 553 636 33,000  Level Houston Center
Mon 01:52:25 AM 30.1339 -89.4183 52° Northeast 551 634 33,000 -50 Level Houston Center
Mon 01:53:25 AM 30.2269 -89.2806 52° Northeast 550 633 32,900  Descending Houston Center
Mon 01:54:25 AM 30.3197 -89.1431 52° Northeast 549 632 33,000  Climbing Houston Center
Mon 01:55:25 AM 30.4125 -89.0061 52° Northeast 545 627 32,900  Descending Houston Center
Mon 01:56:26 AM 30.5147 -88.8536 52° Northeast 541 623 33,000 50 Climbing Houston Center
Mon 01:57:26 AM 30.6064 -88.7153 52° Northeast 543 625 33,000  Level Houston Center
Mon 01:58:26 AM 30.6975 -88.5778 52° Northeast 540 621 33,000  Level Houston Center
Mon 01:59:26 AM 30.7792 -88.4564 52° Northeast 541 623 33,000  Level Houston Center
Mon 02:00:26 AM 30.8719 -88.3172 52° Northeast 546 628 33,000  Level Houston Center
Mon 02:01:26 AM 30.9639 -88.1767 53° Northeast 547 629 33,000  Level Houston Center
Mon 02:02:27 AM 31.0600 -88.0356 51° Northeast 553 636 33,000  Level Houston Center
Mon 02:03:27 AM 31.1539 -87.8958 52° Northeast 548 631 33,000  Level Houston Center
Mon 02:04:27 AM 31.2500 -87.7497 52° Northeast 548 631 33,000  Level Houston Center
Mon 02:05:27 AM 31.3433 -87.6069 53° Northeast 553 636 33,000  Level Houston Center
Mon 02:06:27 AM 31.4353 -87.4631 53° Northeast 553 636 33,000  Level Houston Center
Mon 02:06:56 AM 31.4950 -87.3778 51° Northeast 473 544 33,000  Level Atlanta Center
Mon 02:07:56 AM 31.5886 -87.2300 53° Northeast 513 590 33,000  Level Atlanta Center
Mon 02:08:56 AM 31.6842 -87.0844 52° Northeast 546 628 33,000  Level Atlanta Center
Mon 02:09:56 AM 31.7625 -86.9528 55° Northeast 546 628 33,000  Level Atlanta Center
Mon 02:10:56 AM 31.8556 -86.8067 53° Northeast 551 634 33,000  Level Atlanta Center
Mon 02:11:56 AM 31.9464 -86.6628 53° Northeast 551 634 33,000  Level Atlanta Center
Mon 02:12:56 AM 32.0539 -86.5064 51° Northeast 557 641 33,000  Level Atlanta Center
Mon 02:13:56 AM 32.1294 -86.3761 56° Northeast 552 635 33,000  Level Atlanta Center
Mon 02:14:56 AM 32.2389 -86.2169 51° Northeast 546 628 33,000  Level Atlanta Center
Mon 02:15:55 AM 32.3142 -86.0811 57° Northeast 546 628 33,000  Level Atlanta Center
Mon 02:16:55 AM 32.4125 -85.9258 53° Northeast 546 628 33,000  Level Atlanta Center
Mon 02:17:55 AM 32.5003 -85.7800 54° Northeast 546 628 33,000  Level Atlanta Center
Mon 02:18:55 AM 32.5983 -85.6292 52° Northeast 551 634 33,000  Level Atlanta Center
Mon 02:19:55 AM 32.6858 -85.4778 55° Northeast 551 634 33,000  Level Atlanta Center
Mon 02:20:55 AM 32.7750 -85.3333 54° Northeast 551 634 33,000  Level Atlanta Center
Mon 02:21:55 AM 32.8664 -85.1814 54° Northeast 551 634 33,000  Level Atlanta Center
Mon 02:22:55 AM 32.9489 -85.0536 52° Northeast 546 628 33,000  Level Atlanta Center
Mon 02:23:55 AM 33.0378 -84.9061 54° Northeast 546 628 33,000  Level Atlanta Center
Mon 02:24:55 AM 33.1264 -84.7556 55° Northeast 551 634 33,000  Level Atlanta Center
Mon 02:25:55 AM 33.2169 -84.6050 54° Northeast 551 634 33,000  Level Atlanta Center
Mon 02:26:55 AM 33.3031 -84.4564 55° Northeast 551 634 33,000  Level Atlanta Center
Mon 02:27:55 AM 33.3953 -84.3050 54° Northeast 551 634 33,000  Level Atlanta Center
Mon 02:28:55 AM 33.4853 -84.1558 54° Northeast 556 640 33,000  Level Atlanta Center
Mon 02:29:55 AM 33.5750 -84.0039 55° Northeast 556 640 33,000  Level Atlanta Center
Mon 02:30:55 AM 33.6689 -83.8392 56° Northeast 556 640 33,000  Level Atlanta Center
Mon 02:31:55 AM 33.7603 -83.6914 53° Northeast 551 634 33,000  Level Atlanta Center
Mon 02:32:55 AM 33.8494 -83.5336 56° Northeast 556 640 33,000  Level Atlanta Center
Mon 02:33:55 AM 33.9386 -83.3853 54° Northeast 551 634 33,000  Level Atlanta Center
Mon 02:34:55 AM 34.0275 -83.2342 55° Northeast 551 634 33,000  Level Atlanta Center
Mon 02:35:55 AM 34.1119 -83.0828 56° Northeast 551 634 33,000  Level Atlanta Center
Mon 02:36:55 AM 34.2003 -82.9286 55° Northeast 559 643 33,000  Level Atlanta Center
Mon 02:37:55 AM 34.2886 -82.7742 55° Northeast 559 643 33,000  Level Atlanta Center
Mon 02:38:55 AM 34.3786 -82.6167 55° Northeast 564 649 33,000  Level Atlanta Center
Mon 02:39:55 AM 34.4644 -82.4667 55° Northeast 553 636 33,000  Level Atlanta Center
Mon 02:40:55 AM 34.5522 -82.3086 56° Northeast 553 636 33,000  Level Atlanta Center
Mon 02:41:55 AM 34.6417 -82.1553 55° Northeast 553 636 33,000  Level Atlanta Center
Mon 02:42:55 AM 34.7292 -82.0017 55° Northeast 559 643 33,000  Level Atlanta Center
Mon 02:43:55 AM 34.8161 -81.8403 57° Northeast 565 650 33,000  Level Atlanta Center
Mon 02:44:55 AM 34.8947 -81.7039 55° Northeast 565 650 33,000  Level Atlanta Center
Mon 02:45:55 AM 34.9836 -81.5442 56° Northeast 565 650 33,000  Level Atlanta Center
Mon 02:46:55 AM 35.0719 -81.3817 56° Northeast 560 644 33,000  Level Atlanta Center
Mon 02:47:55 AM 35.1561 -81.2267 56° Northeast 560 644 33,000  Level Atlanta Center
Mon 02:48:55 AM 35.2442 -81.0683 56° Northeast 560 644 33,000  Level Atlanta Center
Mon 02:50:47 AM 35.4122 -80.7553 57° Northeast 552 635 33,000  Level Washington Center
Mon 02:51:47 AM 35.4983 -80.5978 56° Northeast 552 635 33,000  Level Washington Center
Mon 02:52:47 AM 35.5708 -80.4592 57° Northeast 552 635 33,000  Level Washington Center
Mon 02:53:47 AM 35.6567 -80.2983 57° Northeast 552 635 33,000  Level Washington Center
Mon 02:54:47 AM 35.7400 -80.1394 57° Northeast 552 635 33,000  Level Washington Center
Mon 02:55:47 AM 35.8250 -79.9881 55° Northeast 547 629 33,000  Level Washington Center
Mon 02:56:47 AM 35.9100 -79.8286 57° Northeast 547 629 33,000  Level Washington Center
Mon 02:57:47 AM 35.9928 -79.6661 58° Northeast 552 635 33,000  Level Washington Center
Mon 02:58:49 AM 36.0842 -79.4883 58° Northeast 552 635 33,000  Level Washington Center
Mon 02:59:47 AM 36.1619 -79.3456 56° Northeast 552 635 33,000 508 Level Washington Center
Mon 03:00:47 AM 36.2442 -79.1847 58° Northeast 552 635 34,000 900 Climbing Washington Center
Mon 03:01:47 AM 36.3303 -79.0211 57° Northeast 547 629 34,800 500 Climbing Washington Center
Mon 03:02:47 AM 36.4164 -78.8519 58° Northeast 559 643 35,000 100 Climbing Washington Center
Mon 03:03:47 AM 36.5000 -78.6850 58° Northeast 564 649 35,000  Level Washington Center
Mon 03:04:47 AM 36.5878 -78.5175 57° Northeast 574 661 35,000  Level Washington Center
Mon 03:05:48 AM 36.6708 -78.3497 58° Northeast 574 661 35,000  Level Washington Center
Mon 03:06:47 AM 36.7606 -78.1664 59° Northeast 574 661 35,000  Level Washington Center
Mon 03:07:47 AM 36.8456 -77.9928 59° Northeast 574 661 35,000  Level Washington Center
Mon 03:08:47 AM 36.9303 -77.8264 57° Northeast 574 661 35,000  Level Washington Center
Mon 03:09:47 AM 37.0125 -77.6572 59° Northeast 569 655 35,000  Level Washington Center
Mon 03:10:47 AM 37.0967 -77.4850 58° Northeast 574 661 35,000  Level Washington Center
Mon 03:11:48 AM 37.1786 -77.3150 59° Northeast 574 661 35,000  Level Washington Center
Mon 03:12:47 AM 37.2642 -77.1447 58° Northeast 574 661 35,000  Level Washington Center
Mon 03:13:47 AM 37.3436 -76.9739 60° Northeast 574 661 35,000  Level Washington Center
Mon 03:14:49 AM 37.4181 -76.8208 58° Northeast 574 661 35,000  Level Washington Center
Mon 03:15:50 AM 37.5033 -76.6467 58° Northeast 574 661 35,000  Level Washington Center
Mon 03:16:47 AM 37.5839 -76.4775 59° Northeast 569 655 35,000  Level Washington Center
Mon 03:17:47 AM 37.6642 -76.3028 60° Northeast 569 655 35,000  Level Washington Center
Mon 03:18:47 AM 37.7486 -76.1356 57° Northeast 576 663 35,000  Level Washington Center
Mon 03:19:47 AM 37.8264 -75.9597 61° Northeast 569 655 35,000  Level Washington Center
Mon 03:20:49 AM 37.9081 -75.7864 59° Northeast 569 655 35,000  Level Washington Center
Mon 03:21:47 AM 37.9875 -75.6181 59° Northeast 569 655 35,000 -51 Level Washington Center
Mon 03:22:47 AM 38.0772 -75.4572 55° Northeast 569 655 34,900  Descending Washington Center
Mon 03:23:47 AM 38.1917 -75.3275 42° Northeast 545 627 35,000  Climbing Washington Center
Mon 03:24:47 AM 38.3081 -75.2053 39° Northeast 539 620 34,900 -50 Descending Washington Center
Mon 03:25:47 AM 38.4244 -75.0856 39° Northeast 539 620 34,900 50 Level Washington Center
Mon 03:26:47 AM 38.5383 -74.9600 41° Northeast 539 620 35,000 50 Climbing Washington Center
Mon 03:27:47 AM 38.6564 -74.8367 39° Northeast 539 620 35,000  Level Washington Center
Mon 03:28:47 AM 38.7703 -74.7131 40° Northeast 539 620 35,000  Level Washington Center
Mon 03:29:47 AM 38.8903 -74.5889 39° Northeast 546 628 35,000  Level Washington Center
Mon 03:30:48 AM 39.0036 -74.4617 41° Northeast 546 628 35,000  Level Washington Center
Mon 03:31:47 AM 39.1214 -74.3369 39° Northeast 546 628 35,000  Level Washington Center
Mon 03:32:47 AM 39.2344 -74.2117 41° Northeast 546 628 35,000  Level Washington Center
Mon 03:33:47 AM 39.3642 -74.0694 40° Northeast 546 628 35,000 -50 Level Washington Center
Mon 03:34:47 AM 39.4769 -73.9433 41° Northeast 546 628 34,900 -50 Descending Washington Center
Mon 03:35:47 AM 39.5919 -73.8222 39° Northeast 541 623 34,900 50 Level Washington Center
Mon 03:36:47 AM 39.6961 -73.6847 45° Northeast 541 623 35,000 49 Climbing Washington Center
Mon 03:37:49 AM 39.7831 -73.5258 55° Northeast 531 611 35,000  Level Washington Center
Mon 03:38:47 AM 39.8642 -73.3911 52° Northeast 537 618 35,000  Level Washington Center
Mon 03:39:47 AM 39.9550 -73.2394 52° Northeast 531 611 35,000 -102 Level Washington Center
Mon 03:41:00 AM 40.0569 -73.0611 41° Northeast  Level Estimated
Mon 03:48:00 AM 40.7302 -72.2230 80° East  Level FlightAware Approximate
Mon 03:49:00 AM 40.7546 -72.0409 80° East  Level FlightAware Approximate
Mon 03:50:00 AM 40.7787 -71.8587 80° East  Level FlightAware Approximate
Mon 03:51:00 AM 40.8025 -71.6764 80° East  Level FlightAware Approximate
Mon 03:52:00 AM 40.8285 -71.4945 78° East  Level FlightAware Approximate
Mon 03:53:00 AM 40.8578 -71.3134 78° East  Level FlightAware Approximate
Mon 03:54:00 AM 40.8869 -71.1322 78° East  Level FlightAware Approximate
Mon 03:55:00 AM 40.9132 -70.9502 80° East  Level FlightAware Approximate
Mon 03:56:00 AM 40.9371 -70.7675 80° East  Level FlightAware Approximate
Mon 03:57:00 AM 40.9607 -70.5847 80° East  Level FlightAware Approximate
Mon 03:58:00 AM 40.9841 -70.4017 80° East  Level FlightAware Approximate
Mon 03:58:20 AM 41.5711 -70.2811 44° Northeast 552 635 33,000  Level Boston Center
Mon 03:59:00 AM 41.0071 -70.2186 80° East  Level FlightAware Approximate
Mon 03:59:20 AM 41.6444 -70.0953 62° Northeast 552 635 35,000  Level Boston Center
Mon 04:00:00 AM 41.0298 -70.0354 81° East  Level FlightAware Approximate
Mon 04:00:20 AM 41.7347 -69.9250 55° Northeast 557 641 35,000  Level Boston Center
Mon 04:01:00 AM 41.0523 -69.8521 81° East  Level FlightAware Approximate
Mon 04:01:20 AM 41.8183 -69.7603 56° Northeast 542 624 35,000  Level Boston Center
Mon 04:02:00 AM 41.1024 -69.6880 44° Northeast  Level FlightAware Approximate
Mon 04:02:20 AM 41.9019 -69.5947 56° Northeast 537 618 35,000  Level Boston Center
Mon 04:03:20 AM 41.9789 -69.4267 58° Northeast 532 612 35,000  Level Boston Center
Mon 04:04:20 AM 42.0739 -69.2458 55° Northeast 538 619 35,000  Level Boston Center
Mon 04:05:20 AM 42.1569 -69.0847 55° Northeast 533 613 35,000 -50 Level Boston Center
Mon 04:06:20 AM 42.2372 -68.9119 58° Northeast 533 613 34,900  Descending Boston Center
Mon 04:07:20 AM 42.3194 -68.7444 56° Northeast 533 613 35,000 50 Climbing Boston Center
Mon 04:08:20 AM 42.3994 -68.5794 57° Northeast 533 613 35,000  Level Boston Center
Mon 04:09:20 AM 42.4811 -68.4111 57° Northeast 533 613 35,000  Level Boston Center
Mon 04:10:20 AM 42.5608 -68.2536 55° Northeast 528 608 35,000  Level Boston Center
Mon 04:11:20 AM 42.6419 -68.0842 57° Northeast 521 600 35,000  Level Boston Center
Mon 04:12:20 AM 42.7211 -67.9175 57° Northeast 526 605 35,000  Level Boston Center
Mon 04:13:20 AM 42.7997 -67.7475 58° Northeast 526 605 35,000  Level Boston Center
Mon 04:14:20 AM 42.8800 -67.5769 57° Northeast 526 605 35,000  Level Boston Center
Mon 04:15:20 AM 42.9583 -67.4089 57° Northeast 526 605 35,000  Level Boston Center
Mon 04:16:20 AM 43.0364 -67.2433 57° Northeast 526 605 35,000  Level Boston Center
Mon 04:17:20 AM 43.1142 -67.0772 57° Northeast 526 605 35,000 -50 Level Boston Center
Mon 04:18:20 AM 43.1981 -66.9131 55° Northeast 526 605 34,900 -50 Descending Boston Center
Mon 04:19:20 AM 43.2864 -66.7567 52° Northeast 526 605 34,900 50 Level Boston Center
Mon 04:20:20 AM 43.3744 -66.5997 52° Northeast 519 597 35,000 47 Climbing Boston Center
Mon 04:21:28 AM 43.4667 -66.4000 57° Northeast 520 598 35,000  Level Moncton Center
Mon 04:22:28 AM 43.5500 -66.2667 49° Northeast 520 598 35,000  Level Moncton Center
Mon 04:23:28 AM 43.6333 -66.0833 58° Northeast 520 598 35,000  Level Moncton Center
Mon 04:24:28 AM 43.7167 -65.9500 49° Northeast 520 598 35,000  Level Moncton Center
Mon 04:25:28 AM 43.8167 -65.7667 53° Northeast 520 598 35,000  Level Moncton Center
Mon 04:26:28 AM 43.9000 -65.6333 49° Northeast 520 598 35,000  Level Moncton Center
Mon 04:27:28 AM 44.0000 -65.4500 53° Northeast 520 598 35,000  Level Moncton Center
Mon 04:28:28 AM 44.0833 -65.2833 55° Northeast 530 610 35,000  Level Moncton Center
Mon 04:29:28 AM 44.1667 -65.1167 55° Northeast 530 610 35,000  Level Moncton Center
Mon 04:30:28 AM 44.2500 -64.9500 55° Northeast 540 621 35,000  Level Moncton Center
Mon 04:31:28 AM 44.3500 -64.7667 53° Northeast 540 621 35,000  Level Moncton Center
Mon 04:32:28 AM 44.4333 -64.6333 49° Northeast 530 610 35,000  Level Moncton Center
Mon 04:33:28 AM 44.5167 -64.4500 57° Northeast 530 610 35,000  Level Moncton Center
Mon 04:34:28 AM 44.6000 -64.2833 55° Northeast 530 610 35,000  Level Moncton Center
Mon 04:35:28 AM 44.6833 -64.1167 55° Northeast 520 598 35,000  Level Moncton Center
Mon 04:36:28 AM 44.7833 -63.9500 50° Northeast 520 598 35,000  Level Moncton Center
Mon 04:37:28 AM 44.8667 -63.7833 55° Northeast 520 598 35,000  Level Moncton Center
Mon 04:38:28 AM 44.9333 -63.6333 58° Northeast 510 587 35,000  Level Moncton Center
Mon 04:39:28 AM 45.0333 -63.4500 52° Northeast 510 587 35,000  Level Moncton Center
Mon 04:40:28 AM 45.1167 -63.3000 52° Northeast 510 587 35,000  Level Moncton Center
Mon 04:41:28 AM 45.2000 -63.1333 55° Northeast 510 587 35,000  Level Moncton Center
Mon 04:42:28 AM 45.2833 -62.9667 55° Northeast 510 587 35,000  Level Moncton Center
Mon 04:43:28 AM 45.3667 -62.8000 55° Northeast 520 598 35,000  Level Moncton Center
Mon 04:44:28 AM 45.4500 -62.6333 54° Northeast 520 598 35,000  Level Moncton Center
Mon 04:45:28 AM 45.5167 -62.4667 60° Northeast 520 598 35,000  Level Moncton Center
Mon 04:46:28 AM 45.6000 -62.3000 54° Northeast 520 598 35,000  Level Moncton Center
Mon 04:47:28 AM 45.6833 -62.1000 59° Northeast 530 610 35,000  Level Moncton Center
Mon 04:48:28 AM 45.7833 -61.9500 46° Northeast 530 610 35,000  Level Moncton Center
Mon 04:49:28 AM 45.8667 -61.7833 54° Northeast 530 610 35,000  Level Moncton Center
Mon 04:50:28 AM 45.9333 -61.5833 64° Northeast 530 610 35,000  Level Moncton Center
Mon 04:51:28 AM 46.0167 -61.4167 54° Northeast 530 610 35,000  Level Moncton Center
Mon 04:52:28 AM 46.1167 -61.2333 52° Northeast 530 610 35,000  Level Moncton Center
Mon 04:53:28 AM 46.2000 -61.0667 54° Northeast 530 610 35,000  Level Moncton Center
Mon 04:54:28 AM 46.2667 -60.8667 64° Northeast 530 610 35,000  Level Moncton Center
Mon 04:55:28 AM 46.3500 -60.7167 51° Northeast 530 610 35,000  Level Moncton Center
Mon 04:56:28 AM 46.4333 -60.5333 57° Northeast 530 610 35,000  Level Moncton Center
Mon 04:57:28 AM 46.5167 -60.3333 59° Northeast 520 598 35,000  Level Moncton Center
Mon 04:58:28 AM 46.6000 -60.1833 51° Northeast 520 598 35,000  Level Moncton Center
Mon 04:59:28 AM 46.6833 -60.0000 56° Northeast 520 598 35,000  Level Moncton Center
Mon 05:00:32 AM 46.7500 -59.8000 64° Northeast 520 598 35,000  Level Gander Center
Mon 05:01:32 AM 46.8333 -59.6167 56° Northeast 520 598 35,000  Level Gander Center
Mon 05:02:32 AM 46.9167 -59.4500 54° Northeast 520 598 35,000  Level Gander Center
Mon 05:03:32 AM 47.0000 -59.2667 56° Northeast 510 587 35,000  Level Gander Center
Mon 05:04:32 AM 47.0667 -59.1000 60° Northeast 510 587 35,000  Level Gander Center
Mon 05:05:32 AM 47.1333 -58.9333 59° Northeast 510 587 35,000  Level Gander Center
Mon 05:06:32 AM 47.2167 -58.7167 60° Northeast 520 598 35,000  Level Gander Center
Mon 05:07:32 AM 47.3000 -58.5500 54° Northeast 520 598 35,000  Level Gander Center
Mon 05:08:32 AM 47.3667 -58.3667 62° Northeast 520 598 35,000  Level Gander Center
Mon 05:09:32 AM 47.4333 -58.2000 59° Northeast 520 598 35,000  Level Gander Center
Mon 05:10:32 AM 47.5167 -58.0167 56° Northeast 520 598 35,000  Level Gander Center
Mon 05:11:32 AM 47.6000 -57.8167 58° Northeast 520 598 35,000  Level Gander Center
Mon 05:12:32 AM 47.6667 -57.6667 57° Northeast 520 598 35,000  Level Gander Center
Mon 05:13:32 AM 47.7500 -57.4500 60° Northeast 520 598 35,000  Level Gander Center
Mon 05:14:28 AM 47.8167 -57.2833 59° Northeast 510 587 35,000  Level Moncton Center
Mon 05:14:32 AM 47.8167 -57.2833 59° Northeast 520 598 35,000  Level Gander Center
Mon 05:15:28 AM 47.8667 -57.1000 68° East 510 587 35,000  Level Moncton Center
Mon 05:16:28 AM 47.9333 -56.9167 61° Northeast 510 587 35,000  Level Moncton Center
Mon 05:17:32 AM 48.0167 -56.7167 58° Northeast 510 587 35,000  Level Gander Center
Mon 05:18:32 AM 48.0833 -56.5000 65° Northeast 510 587 35,000  Level Gander Center
Mon 05:19:32 AM 48.1333 -56.3167 68° East 510 587 35,000  Level Gander Center
Mon 05:20:32 AM 48.2000 -56.1333 61° Northeast 510 587 35,000  Level Gander Center
Mon 05:21:32 AM 48.2500 -55.9333 69° East 510 587 35,000  Level Gander Center
Mon 05:22:32 AM 48.3333 -55.7500 56° Northeast 510 587 35,000  Level Gander Center
Mon 05:23:32 AM 48.3833 -55.5667 68° East 510 587 35,000  Level Gander Center
Mon 05:24:32 AM 48.4500 -55.3833 61° Northeast 500 575 35,000  Level Gander Center
Mon 05:25:32 AM 48.5000 -55.1667 71° East 500 575 35,000  Level Gander Center
Mon 05:26:32 AM 48.5500 -54.9833 68° East 500 575 35,000  Level Gander Center
Mon 05:27:32 AM 48.6333 -54.8000 55° Northeast 500 575 35,000  Level Gander Center
Mon 05:28:32 AM 48.6833 -54.6167 67° East 500 575 35,000  Level Gander Center
Mon 05:29:32 AM 48.7333 -54.4000 71° East 500 575 35,000  Level Gander Center
Mon 05:30:32 AM 48.8000 -54.2167 61° Northeast 510 587 35,000  Level Gander Center
Mon 05:31:32 AM 48.8500 -54.0333 67° East 500 575 35,000  Level Gander Center
Mon 05:32:32 AM 48.9000 -53.8500 67° East 510 587 35,000  Level Gander Center
Mon 05:33:32 AM 48.9833 -53.6333 60° Northeast 510 587 35,000  Level Gander Center
Mon 05:34:32 AM 49.0333 -53.4500 67° East 510 587 35,000  Level Gander Center
Mon 05:35:15 AM 49.0667 -53.3167 69° East 510 587 35,000  Level Gander Center
Mon 05:36:15 AM 49.1167 -53.1167 69° East 510 587 35,000  Level Gander Center
Mon 05:36:32 AM 49.1500 -53.0500 53° Northeast 510 587 35,000  Level Gander Center
Mon 05:37:15 AM 49.2000 -52.9000 63° Northeast 500 575 35,000  Level Gander Center
Mon 05:38:15 AM 49.2500 -52.7167 67° East 510 587 35,000  Level Gander Center
Mon 05:39:15 AM 49.3000 -52.5000 70° East 510 587 35,000  Level Gander Center
Mon 05:39:32 AM 49.3167 -52.4667 53° Northeast 500 575 35,000  Level Gander Center
Mon 05:40:32 AM 49.3667 -52.2667 69° East 510 587 35,000  Level Gander Center
Mon 05:41:15 AM 49.4000 -52.1167 71° East 510 587 35,000  Level Gander Center
Mon 05:42:15 AM 49.4667 -51.9333 61° Northeast 500 575 35,000  Level Gander Center
Mon 05:42:32 AM 49.4833 -51.8500 73° East 510 587 35,000  Level Gander Center
Mon 05:43:32 AM 49.5333 -51.6500 69° East 510 587 35,000  Level Gander Center
Mon 05:44:32 AM 49.5833 -51.4667 67° East 500 575 35,000  Level Gander Center
Mon 05:45:32 AM 49.6333 -51.2667 69° East 500 575 35,000  Level Gander Center
Mon 05:46:32 AM 49.6833 -51.0833 67° East 500 575 35,000  Level Gander Center
Mon 05:47:32 AM 49.7333 -50.8667 70° East 500 575 35,000  Level Gander Center
Mon 05:48:32 AM 49.7833 -50.6667 69° East 510 587 35,000  Level Gander Center
Mon 05:49:32 AM 49.8500 -50.4667 63° Northeast 500 575 35,000  Level Gander Center
Mon 05:50:32 AM 49.9000 -50.2833 67° East 500 575 35,000  Level Gander Center
Mon 05:51:32 AM 49.9333 -50.0500 77° East 500 575 35,000  Level Gander Center
Mon 05:52:32 AM 49.9833 -49.8667 67° East 500 575 35,000  Level Gander Center
Mon 05:53:32 AM 50.0333 -49.6667 69° East 500 575 35,000  Level Gander Center
Mon 05:54:15 AM 50.0667 -49.5000 73° East 500 575 35,000  Level Gander Center
Mon 05:55:00 AM 50.0000 -50.0000 69° East 505 581 35,000  Level ETMS Enhanced Traffic Management System
Mon 05:55:15 AM 50.1167 -49.3000 69° East 500 575 35,000  Level Gander Center
Mon 05:55:30 AM 50.0000 -50.0000 69° East 505 581 35,000  Level ETMS Enhanced Traffic Management System
Mon 05:56:15 AM 50.1667 -49.1333 69° East 500 575 35,000  Level Gander Center
Mon 05:57:15 AM 50.2333 -48.9333 62° Northeast 490 564 35,000  Level Gander Center
Mon 05:58:15 AM 50.2667 -48.7167 76° East 500 575 35,000  Level Gander Center
Mon 05:59:15 AM 50.3167 -48.5167 69° East 500 575 35,000  Level Gander Center
Mon 06:00:15 AM 50.3667 -48.3167 69° East 490 564 35,000  Level Gander Center
Mon 06:01:15 AM 50.4167 -48.1167 69° East 490 564 35,000  Level Gander Center
Mon 06:01:32 AM 50.4167 -48.0667 90° East 500 575 35,000  Level Gander Center
Mon 06:04:00 AM 50.5089 -47.7087 68° East  Level FlightAware Approximate
Mon 06:11:00 AM 50.8654 -46.2609 71° East  Level FlightAware Approximate
Mon 06:12:00 AM 50.9100 -46.0498 71° East  Level FlightAware Approximate
Mon 06:13:00 AM 50.9541 -45.8382 72° East  Level FlightAware Approximate
Mon 06:14:00 AM 50.9979 -45.6263 72° East  Level FlightAware Approximate
Mon 06:15:00 AM 51.0414 -45.4139 72° East  Level FlightAware Approximate
Mon 06:16:00 AM 51.0844 -45.2011 72° East  Level FlightAware Approximate
Mon 06:17:00 AM 51.1270 -44.9880 72° East  Level FlightAware Approximate
Mon 06:18:00 AM 51.1693 -44.7744 72° East  Level FlightAware Approximate
Mon 06:19:00 AM 51.2112 -44.5605 73° East  Level FlightAware Approximate
Mon 06:20:00 AM 51.2526 -44.3462 73° East  Level FlightAware Approximate
Mon 06:21:00 AM 51.2937 -44.1315 73° East  Level FlightAware Approximate
Mon 06:22:00 AM 51.3344 -43.9164 73° East  Level FlightAware Approximate
Mon 06:23:00 AM 51.3735 -43.7003 74° East  Level FlightAware Approximate
Mon 06:24:00 AM 51.4114 -43.4836 74° East  Level FlightAware Approximate
Mon 06:25:00 AM 51.4489 -43.2664 74° East  Level FlightAware Approximate
Mon 06:26:00 AM 51.4860 -43.0490 75° East  Level FlightAware Approximate
Mon 06:27:00 AM 51.5227 -42.8312 75° East  Level FlightAware Approximate
Mon 06:28:00 AM 51.5590 -42.6130 75° East  Level FlightAware Approximate
Mon 06:29:00 AM 51.5975 -42.3956 74° East  Level FlightAware Approximate
Mon 06:30:00 AM 51.6364 -42.1782 74° East  Level FlightAware Approximate
Mon 06:31:00 AM 51.6748 -41.9604 74° East  Level FlightAware Approximate
Mon 06:32:00 AM 51.7129 -41.7423 74° East  Level FlightAware Approximate
Mon 06:33:00 AM 51.7505 -41.5238 74° East  Level FlightAware Approximate
Mon 06:34:00 AM 51.7877 -41.3049 75° East  Level FlightAware Approximate
Mon 06:35:00 AM 51.8245 -41.0857 75° East  Level FlightAware Approximate
Mon 06:36:00 AM 51.8609 -40.8661 75° East  Level FlightAware Approximate
Mon 06:37:00 AM 51.8969 -40.6462 75° East  Level FlightAware Approximate
Mon 06:38:00 AM 51.9325 -40.4259 75° East  Level FlightAware Approximate
Mon 06:39:00 AM 51.9677 -40.2052 75° East  Level FlightAware Approximate
Mon 06:40:00 AM 52.0022 -39.9841 77° East  Level FlightAware Approximate
Mon 06:41:00 AM 52.0331 -39.7615 77° East  Level FlightAware Approximate
Mon 06:42:00 AM 52.0635 -39.5385 77° East  Level FlightAware Approximate
Mon 06:43:00 AM 52.0935 -39.3152 78° East  Level FlightAware Approximate
Mon 06:44:00 AM 52.1231 -39.0916 78° East  Level FlightAware Approximate
Mon 06:45:00 AM 52.1523 -38.8678 78° East  Level FlightAware Approximate
Mon 06:45:42 AM 52.0000 -40.0000 77° East 493 567 35,000  Level ETMS Enhanced Traffic Management System
Mon 06:46:00 AM 52.1810 -38.6436 78° East  Level FlightAware Approximate
Mon 06:47:00 AM 52.2094 -38.4192 78° East  Level FlightAware Approximate
Mon 06:48:00 AM 52.2373 -38.1944 78° East  Level FlightAware Approximate
Mon 06:49:00 AM 52.2647 -37.9694 79° East  Level FlightAware Approximate
Mon 06:50:00 AM 52.2918 -37.7441 79° East  Level FlightAware Approximate
Mon 06:51:00 AM 52.3218 -37.6003 79° East 493 567 35,000  Level FlightAware Transoceanic
Mon 06:52:00 AM 52.3486 -37.3805 79° East 493 567 35,000  Level FlightAware Transoceanic
Mon 06:53:00 AM 52.3750 -37.1604 79° East 493 567 35,000  Level FlightAware Transoceanic
Mon 06:54:00 AM 52.4010 -36.9401 79° East 493 567 35,000  Level FlightAware Transoceanic
Mon 06:55:00 AM 52.4266 -36.7195 79° East 493 567 35,000  Level FlightAware Transoceanic
Mon 06:56:00 AM 52.4518 -36.4986 79° East 493 567 35,000  Level FlightAware Transoceanic
Mon 06:57:00 AM 52.4766 -36.2775 80° East 493 567 35,000  Level FlightAware Transoceanic
Mon 06:58:00 AM 52.5009 -36.0561 80° East 493 567 35,000  Level FlightAware Transoceanic
Mon 06:59:00 AM 52.5249 -35.8345 80° East 493 567 35,000  Level FlightAware Transoceanic
Mon 07:00:00 AM 52.5484 -35.6127 80° East 493 567 35,000  Level FlightAware Transoceanic
Mon 07:01:00 AM 52.5715 -35.3906 80° East 493 567 35,000  Level FlightAware Transoceanic
Mon 07:02:00 AM 52.5942 -35.1683 81° East 493 567 35,000  Level FlightAware Transoceanic
Mon 07:03:00 AM 52.6165 -34.9457 81° East 493 567 35,000  Level FlightAware Transoceanic
Mon 07:04:00 AM 52.6384 -34.7229 81° East 493 567 35,000  Level FlightAware Transoceanic
Mon 07:05:00 AM 52.6598 -34.5000 81° East 493 567 35,000  Level FlightAware Transoceanic
Mon 07:06:00 AM 52.6809 -34.2767 81° East 493 567 35,000  Level FlightAware Transoceanic
Mon 07:07:00 AM 52.7015 -34.0533 81° East 493 567 35,000  Level FlightAware Transoceanic
Mon 07:08:00 AM 52.7217 -33.8297 82° East 493 567 35,000  Level FlightAware Transoceanic
Mon 07:09:00 AM 52.7415 -33.6059 82° East 493 567 35,000  Level FlightAware Transoceanic
Mon 07:10:00 AM 52.7608 -33.3818 82° East 493 567 35,000  Level FlightAware Transoceanic
Mon 07:11:00 AM 52.7797 -33.1576 82° East 493 567 35,000  Level FlightAware Transoceanic
Mon 07:12:00 AM 52.7982 -32.9332 82° East 493 567 35,000  Level FlightAware Transoceanic
Mon 07:13:00 AM 52.8163 -32.7086 83° East 493 567 35,000  Level FlightAware Transoceanic
Mon 07:14:00 AM 52.8340 -32.4838 83° East 493 567 35,000  Level FlightAware Transoceanic
Mon 07:15:00 AM 52.8512 -32.2588 83° East 493 567 35,000  Level FlightAware Transoceanic
Mon 07:16:00 AM 52.8680 -32.0336 83° East 493 567 35,000  Level FlightAware Transoceanic
Mon 07:17:00 AM 52.8844 -31.8083 83° East 493 567 35,000  Level FlightAware Transoceanic
Mon 07:18:00 AM 52.9003 -31.5828 83° East 493 567 35,000  Level FlightAware Transoceanic
Mon 07:19:00 AM 52.9159 -31.3571 84° East 493 567 35,000  Level FlightAware Transoceanic
Mon 07:20:00 AM 52.9310 -31.1313 84° East 493 567 35,000  Level FlightAware Transoceanic
Mon 07:21:00 AM 52.9456 -30.9054 84° East 493 567 35,000  Level FlightAware Transoceanic
Mon 07:22:00 AM 52.9599 -30.6792 84° East 493 567 35,000  Level FlightAware Transoceanic
Mon 07:23:00 AM 52.9737 -30.4530 84° East 493 567 35,000  Level FlightAware Transoceanic
Mon 07:24:00 AM 52.9870 -30.2265 84° East 493 567 35,000  Level FlightAware Transoceanic
Mon 07:25:00 AM 53.0002 -29.9965 84° East  Level FlightAware Approximate
Mon 07:26:00 AM 53.0010 -29.9932 76° East  Level FlightAware Approximate
Mon 07:27:00 AM 53.0333 -29.7684 76° East  Level FlightAware Approximate
Mon 07:28:00 AM 53.0652 -29.5432 77° East  Level FlightAware Approximate
Mon 07:29:00 AM 53.0967 -29.3177 77° East  Level FlightAware Approximate
Mon 07:29:00 AM 53.0000 -30.0000 76° East 504 580 35,000  Level ETMS Enhanced Traffic Management System
Mon 07:30:00 AM 53.1278 -29.0919 77° East  Level FlightAware Approximate
Mon 07:31:00 AM 53.1584 -28.8657 77° East  Level FlightAware Approximate
Mon 07:32:00 AM 53.1886 -28.6392 77° East  Level FlightAware Approximate
Mon 07:33:00 AM 53.2184 -28.4124 78° East  Level FlightAware Approximate
Mon 07:34:00 AM 53.2478 -28.1853 78° East  Level FlightAware Approximate
Mon 07:35:00 AM 53.2767 -27.9579 78° East  Level FlightAware Approximate
Mon 07:36:00 AM 53.3065 -27.7194 78° East 504 580 35,000  Level FlightAware Transoceanic
Mon 07:37:00 AM 53.3347 -27.4896 78° East 504 580 35,000  Level FlightAware Transoceanic
Mon 07:38:00 AM 53.3625 -27.2595 79° East 504 580 35,000  Level FlightAware Transoceanic
Mon 07:39:00 AM 53.3899 -27.0291 79° East 504 580 35,000  Level FlightAware Transoceanic
Mon 07:40:00 AM 53.4168 -26.7983 79° East 504 580 35,000  Level FlightAware Transoceanic
Mon 07:41:00 AM 53.4433 -26.5674 79° East 504 580 35,000  Level FlightAware Transoceanic
Mon 07:42:00 AM 53.4693 -26.3361 79° East 504 580 35,000  Level FlightAware Transoceanic
Mon 07:43:00 AM 53.4949 -26.1045 80° East 504 580 35,000  Level FlightAware Transoceanic
Mon 07:44:00 AM 53.5200 -25.8727 80° East 504 580 35,000  Level FlightAware Transoceanic
Mon 07:45:00 AM 53.5447 -25.6406 80° East 504 580 35,000  Level FlightAware Transoceanic
Mon 07:46:00 AM 53.5689 -25.4082 80° East 504 580 35,000  Level FlightAware Transoceanic
Mon 07:47:00 AM 53.5927 -25.1755 80° East 504 580 35,000  Level FlightAware Transoceanic
Mon 07:48:00 AM 53.6160 -24.9426 81° East 504 580 35,000  Level FlightAware Transoceanic
Mon 07:49:00 AM 53.6389 -24.7095 81° East 504 580 35,000  Level FlightAware Transoceanic
Mon 07:50:00 AM 53.6613 -24.4761 81° East 504 580 35,000  Level FlightAware Transoceanic
Mon 07:51:00 AM 53.6832 -24.2424 81° East 504 580 35,000  Level FlightAware Transoceanic
Mon 07:52:00 AM 53.7047 -24.0085 81° East 504 580 35,000  Level FlightAware Transoceanic
Mon 07:53:00 AM 53.7258 -23.7744 81° East 504 580 35,000  Level FlightAware Transoceanic
Mon 07:54:00 AM 53.7464 -23.5400 82° East 504 580 35,000  Level FlightAware Transoceanic
Mon 07:55:00 AM 53.7665 -23.3054 82° East 504 580 35,000  Level FlightAware Transoceanic
Mon 07:56:00 AM 53.7862 -23.0706 82° East 504 580 35,000  Level FlightAware Transoceanic
Mon 07:57:00 AM 53.8054 -22.8356 82° East 504 580 35,000  Level FlightAware Transoceanic
Mon 07:58:00 AM 53.8242 -22.6003 82° East 504 580 35,000  Level FlightAware Transoceanic
Mon 07:59:00 AM 53.8425 -22.3649 83° East 504 580 35,000  Level FlightAware Transoceanic
Mon 08:00:00 AM 53.8603 -22.1292 83° East 504 580 35,000  Level FlightAware Transoceanic
Mon 08:01:00 AM 53.8777 -21.8934 83° East 504 580 35,000  Level FlightAware Transoceanic
Mon 08:02:00 AM 53.8946 -21.6573 83° East 504 580 35,000  Level FlightAware Transoceanic
Mon 08:03:00 AM 53.9111 -21.4211 83° East 504 580 35,000  Level FlightAware Transoceanic
Mon 08:04:00 AM 53.9271 -21.1847 84° East 504 580 35,000  Level FlightAware Transoceanic
Mon 08:05:00 AM 53.9426 -20.9481 84° East 504 580 35,000  Level FlightAware Transoceanic
Mon 08:06:00 AM 53.9576 -20.7113 84° East 504 580 35,000  Level FlightAware Transoceanic
Mon 08:07:00 AM 53.9722 -20.4744 84° East 504 580 35,000  Level FlightAware Transoceanic
Mon 08:08:00 AM 53.9863 -20.2373 84° East 504 580 35,000  Level FlightAware Transoceanic
Mon 08:09:00 AM 53.9999 -20.0018 84° East  Level FlightAware Approximate
Mon 08:10:00 AM 54.0126 -19.7662 85° East  Level FlightAware Approximate
Mon 08:11:00 AM 53.9745 -19.7712 101° East  Level FlightAware Approximate
Mon 08:12:00 AM 53.9481 -19.5391 101° East  Level FlightAware Approximate
Mon 08:13:00 AM 53.9212 -19.3074 101° East  Level FlightAware Approximate
Mon 08:14:00 AM 53.8940 -19.0759 101° East  Level FlightAware Approximate
Mon 08:15:00 AM 53.8662 -18.8447 101° East  Level FlightAware Approximate
Mon 08:16:00 AM 53.8381 -18.6138 102° East  Level FlightAware Approximate
Mon 08:17:00 AM 53.8094 -18.3832 102° East  Level FlightAware Approximate
Mon 08:18:00 AM 53.7804 -18.1530 102° East  Level FlightAware Approximate
Mon 08:19:00 AM 53.7509 -17.9230 102° East  Level FlightAware Approximate
Mon 08:20:00 AM 53.7209 -17.6935 102° East  Level FlightAware Approximate
Mon 08:21:00 AM 53.6906 -17.4642 103° East  Level FlightAware Approximate
Mon 08:22:00 AM 53.6598 -17.2352 103° East  Level FlightAware Approximate
Mon 08:23:00 AM 53.6285 -17.0066 103° East  Level FlightAware Approximate
Mon 08:24:00 AM 53.5968 -16.7784 103° East  Level FlightAware Approximate
Mon 08:25:00 AM 53.5647 -16.5505 103° East  Level FlightAware Approximate
Mon 08:26:00 AM 53.5322 -16.3229 103° East  Level FlightAware Approximate
Mon 08:27:00 AM 53.4992 -16.0957 104° East  Level FlightAware Approximate
Mon 08:28:00 AM 53.4658 -15.8688 104° East  Level FlightAware Approximate
Mon 08:29:00 AM 53.4319 -15.6423 104° East  Level FlightAware Approximate
Mon 08:30:00 AM 53.3977 -15.4162 104° East  Level FlightAware Approximate
Mon 08:31:00 AM 53.3630 -15.1904 104° East  Level FlightAware Approximate
Mon 08:32:00 AM 53.3280 -14.9649 104° East  Level FlightAware Approximate
Mon 08:33:00 AM 53.2933 -14.7395 104° East  Level FlightAware Approximate
Mon 08:34:00 AM 53.2582 -14.5145 105° East  Level FlightAware Approximate
Mon 08:35:00 AM 53.2227 -14.2898 105° East  Level FlightAware Approximate
Mon 08:36:00 AM 53.1867 -14.0655 105° East  Level FlightAware Approximate
Mon 08:37:00 AM 53.1504 -13.8416 105° East  Level FlightAware Approximate
Mon 08:38:00 AM 53.1136 -13.6180 105° East  Level FlightAware Approximate
Mon 08:39:00 AM 53.0764 -13.3949 105° East  Level FlightAware Approximate
Mon 08:40:00 AM 53.0388 -13.1721 106° East  Level FlightAware Approximate
Mon 08:41:00 AM 53.0008 -12.9497 106° East  Level FlightAware Approximate
Mon 08:42:00 AM 52.9623 -12.7277 106° East  Level FlightAware Approximate
Mon 08:43:00 AM 52.9235 -12.5061 106° East  Level FlightAware Approximate
Mon 08:44:00 AM 52.8842 -12.2850 106° East  Level FlightAware Approximate
Mon 08:45:00 AM 52.8445 -12.0642 106° East  Level FlightAware Approximate
Mon 08:46:00 AM 52.8044 -11.8438 107° East  Level FlightAware Approximate
Mon 08:47:00 AM 52.7639 -11.6238 107° East  Level FlightAware Approximate
Mon 08:48:00 AM 52.7230 -11.4043 107° East  Level FlightAware Approximate
Mon 08:49:00 AM 52.6817 -11.1851 107° East  Level FlightAware Approximate
Mon 08:50:00 AM 52.6400 -10.9664 107° East  Level FlightAware Approximate
Mon 08:51:00 AM 52.5979 -10.7480 108° East  Level FlightAware Approximate
Mon 08:52:00 AM 52.5554 -10.5302 108° East  Level FlightAware Approximate
Mon 08:53:00 AM 52.5125 -10.3127 108° East  Level FlightAware Approximate
Mon 08:54:00 AM 52.4692 -10.0956 108° East  Level FlightAware Approximate
Mon 08:55:00 AM 52.4254 -9.8790 108° East  Level FlightAware Approximate
Mon 08:56:00 AM 52.3813 -9.6628 108° East  Level FlightAware Approximate
Mon 08:57:00 AM 52.3368 -9.4471 109° East  Level FlightAware Approximate
Mon 08:58:00 AM 52.2919 -9.2318 109° East  Level FlightAware Approximate
Mon 08:59:00 AM 52.2464 -9.0171 109° East  Level FlightAware Approximate
Mon 09:00:00 AM 52.2005 -8.8027 109° East  Level FlightAware Approximate
Mon 09:01:00 AM 52.1543 -8.5889 109° East  Level FlightAware Approximate
Mon 09:02:00 AM 52.1076 -8.3754 110° East  Level FlightAware Approximate
Mon 09:03:00 AM 52.0606 -8.1624 110° East  Level FlightAware Approximate
Mon 09:04:00 AM 52.0132 -7.9499 110° East  Level FlightAware Approximate
Mon 09:05:00 AM 51.9654 -7.7378 110° East  Level FlightAware Approximate
Mon 09:06:00 AM 51.9173 -7.5262 110° East  Level FlightAware Approximate
Mon 09:07:00 AM 51.8687 -7.3150 110° East  Level FlightAware Approximate
Mon 09:08:00 AM 51.8198 -7.1043 111° Southeast  Level FlightAware Approximate
Mon 09:09:00 AM 51.7705 -6.8940 111° Southeast  Level FlightAware Approximate
Mon 09:10:00 AM 51.7208 -6.6842 111° Southeast  Level FlightAware Approximate
Mon 09:11:00 AM 51.6627 -6.4809 111° Southeast  Level FlightAware Approximate
Mon 09:12:00 AM 51.6120 -6.2722 111° Southeast  Level FlightAware Approximate
Mon 09:13:00 AM 51.5609 -6.0640 111° Southeast  Level FlightAware Approximate
Mon 09:14:00 AM 51.5095 -5.8563 112° Southeast  Level FlightAware Approximate
Mon 09:15:00 AM 51.4578 -5.6490 112° Southeast  Level FlightAware Approximate
Mon 09:16:00 AM 51.4056 -5.4422 112° Southeast  Level FlightAware Approximate
Mon 09:17:00 AM 51.3531 -5.2359 112° Southeast  Level FlightAware Approximate
Mon 09:18:00 AM 51.3003 -5.0300 112° Southeast  Level FlightAware Approximate
Mon 09:19:00 AM 51.2471 -4.8247 112° Southeast  Level FlightAware Approximate
Mon 09:20:00 AM 51.1935 -4.6198 113° Southeast  Level FlightAware Approximate
Mon 09:21:00 AM 51.1395 -4.4153 113° Southeast  Level FlightAware Approximate
Mon 09:22:00 AM 51.0853 -4.2114 113° Southeast  Level FlightAware Approximate
Mon 09:23:00 AM 51.0306 -4.0079 113° Southeast  Level FlightAware Approximate
Mon 09:24:00 AM 50.9757 -3.8049 113° Southeast  Level FlightAware Approximate
Mon 09:25:00 AM 50.9207 -3.6022 113° Southeast  Level FlightAware Approximate
Mon 09:26:00 AM 50.8653 -3.3999 113° Southeast  Level FlightAware Approximate
Mon 09:27:00 AM 50.8096 -3.1981 114° Southeast  Level FlightAware Approximate
Mon 09:28:00 AM 50.7535 -2.9968 114° Southeast  Level FlightAware Approximate
Mon 09:29:00 AM 50.6971 -2.7960 114° Southeast  Level FlightAware Approximate
Mon 09:30:00 AM 50.6404 -2.5957 114° Southeast  Level FlightAware Approximate
Mon 09:31:00 AM 50.5833 -2.3959 114° Southeast  Level FlightAware Approximate
Mon 09:32:00 AM 50.5258 -2.1965 114° Southeast  Level FlightAware Approximate
Mon 09:33:00 AM 50.4682 -1.9976 114° Southeast  Level FlightAware Approximate
Mon 09:34:00 AM 50.4105 -1.7989 114° Southeast  Level FlightAware Approximate
Mon 09:35:00 AM 50.3525 -1.6007 115° Southeast  Level FlightAware Approximate
Mon 09:36:00 AM 50.2941 -1.4030 115° Southeast  Level FlightAware Approximate
Mon 09:37:00 AM 50.2347 -1.2063 115° Southeast  Level FlightAware Approximate
Mon 09:38:00 AM 50.1748 -1.0102 115° Southeast  Level FlightAware Approximate
Mon 09:39:00 AM 50.1146 -0.8146 116° Southeast  Level FlightAware Approximate
Mon 09:40:00 AM 50.0540 -0.6195 116° Southeast  Level FlightAware Approximate
Mon 09:41:00 AM 49.9922 -0.4256 116° Southeast  Level FlightAware Approximate
Mon 09:42:00 AM 49.9301 -0.2321 116° Southeast  Level FlightAware Approximate
Mon 09:43:00 AM 49.8677 -0.0391 117° Southeast  Level FlightAware Approximate
Mon 09:44:00 AM 49.8046 0.1530 117° Southeast  Level FlightAware Approximate
Mon 09:45:00 AM 49.7438 0.3467 116° Southeast  Level FlightAware Approximate
Mon 09:46:00 AM 49.6837 0.5406 115° Southeast  Level FlightAware Approximate
Mon 09:47:00 AM 49.6223 0.7333 117° Southeast  Level FlightAware Approximate
Mon 09:48:00 AM 49.5587 0.9241 117° Southeast  Level FlightAware Approximate
Mon 09:49:00 AM 49.4932 1.1130 120° Southeast  Level FlightAware Approximate
Mon 09:50:00 AM 49.4238 1.2984 120° Southeast  Level FlightAware Approximate
Mon 09:51:00 AM 49.3566 1.4853 114° Southeast  Level FlightAware Approximate
Mon 09:52:00 AM 49.3008 1.6807 114° Southeast  Level FlightAware Approximate
Mon 09:53:00 AM 49.2377 1.8707 117° Southeast  Level FlightAware Approximate
Mon 09:54:00 AM 49.1660 2.0521 117° Southeast  Level FlightAware Approximate
Mon 09:55:00 AM 49.1028 2.2415 117° Southeast  Level FlightAware Approximate
Mon 09:56:00 AM 49.0362 2.4266 123° Southeast  Level FlightAware Approximate
Mon 09:57:00 AM 49.0000 2.5333 117° Southeast  Level FlightAware Approximate
Mon 09:58:00 AM 49.0128 2.5500 117° Southeast  Level Estimated
Mon 09:59:00 AM 49.0128 2.5500 117° Southeast  Level Estimated
Mon 10:00:00 AM 49.0128 2.5500 117° Southeast  Level Estimated
Mon 10:01:00 AM 49.0128 2.5500 117° Southeast  Level Estimated
Mon 10:02:00 AM 49.0128 2.5500 117° Southeast  Level Estimated
Mon 10:03:00 AM 49.0128 2.5500 117° Southeast  Level Estimated
Mon 10:04:00 AM 49.0128 2.5500 117° Southeast  Level Estimated
Mon 10:05:00 AM 49.0128 2.5500 117° Southeast  Level Estimated
Mon 10:06:00 AM 49.0128 2.5500 117° Southeast  Level Estimated
Mon 10:07:00 AM 49.0128 2.5500 117° Southeast  Level Estimated
Mon 10:08:00 AM 49.0128 2.5500 117° Southeast  Level Estimated
Mon 10:09:00 AM 49.0128 2.5500 117° Southeast  Level Estimated
Mon 10:10:00 AM 49.0128 2.5500 117° Southeast  Level Estimated

Login

Don't have an account? Register now (free) for customized features, flight alerts, and more!